createdAt,value
2018-11-23T00:02:00.400Z,33.10
2018-11-23T00:04:30.193Z,37.00
2018-11-23T00:07:00.527Z,36.73
2018-11-23T00:09:30.926Z,35.67
2018-11-23T00:12:01.515Z,36.67
2018-11-23T00:14:32.041Z,41.20
2018-11-23T00:17:01.973Z,41.10
2018-11-23T00:19:33.102Z,38.63
2018-11-23T00:22:03.023Z,39.47
2018-11-23T00:24:33.949Z,44.27
2018-11-23T00:27:03.996Z,39.33
2018-11-23T00:29:34.870Z,38.17
2018-11-23T00:32:05.240Z,45.33
2018-11-23T00:34:35.414Z,37.93
2018-11-23T00:37:06.082Z,39.17
2018-11-23T00:39:35.896Z,40.00
2018-11-23T00:42:06.428Z,40.90
2018-11-23T00:44:36.698Z,39.23
2018-11-23T00:47:07.094Z,40.13
2018-11-23T00:49:37.307Z,45.20
2018-11-23T00:52:07.345Z,36.97
2018-11-23T00:54:38.020Z,41.73
2018-11-23T00:57:07.654Z,38.50
2018-11-23T00:59:38.021Z,40.40
2018-11-23T01:02:08.360Z,40.80
2018-11-23T01:04:39.098Z,37.53
2018-11-23T01:07:09.719Z,38.90
2018-11-23T01:09:39.849Z,42.67
2018-11-23T01:12:10.261Z,42.30
2018-11-23T01:14:40.245Z,42.47
2018-11-23T01:17:11.547Z,39.10
2018-11-23T01:19:41.152Z,40.03
2018-11-23T01:22:11.950Z,42.80
2018-11-23T01:24:41.630Z,43.40
2018-11-23T01:27:12.176Z,43.00
2018-11-23T01:29:42.286Z,45.00
2018-11-23T01:32:12.740Z,46.60
2018-11-23T01:34:43.246Z,43.40
2018-11-23T01:37:13.512Z,45.30
2018-11-23T01:39:43.423Z,51.47
2018-11-23T01:42:13.339Z,54.67
2018-11-23T01:44:51.113Z,48.93
2018-11-23T01:47:23.413Z,46.13
2018-11-23T01:49:54.950Z,45.00
2018-11-23T01:52:27.282Z,53.27
2018-11-23T01:54:57.210Z,44.57
2018-11-23T01:57:29.269Z,52.57
2018-11-23T02:00:00.304Z,50.00
2018-11-23T02:02:30.685Z,41.93
2018-11-23T02:05:02.241Z,44.93
2018-11-23T02:07:32.589Z,48.40
2018-11-23T02:10:03.691Z,47.37
2018-11-23T02:12:33.293Z,45.73
2018-11-23T02:15:03.657Z,45.13
2018-11-23T02:17:34.079Z,50.07
2018-11-23T02:20:04.890Z,44.57
2018-11-23T02:22:34.491Z,43.47
2018-11-23T02:25:05.473Z,44.63
2018-11-23T02:27:35.537Z,52.87
2018-11-23T02:30:09.551Z,39.93
2018-11-23T02:32:40.259Z,40.60
2018-11-23T02:35:11.371Z,35.03
2018-11-23T02:37:44.277Z,44.30
2018-11-23T02:40:18.634Z,45.50
2018-11-23T02:42:49.503Z,38.20
2018-11-23T02:45:21.749Z,39.77
2018-11-23T02:47:54.340Z,36.07
2018-11-23T02:50:24.402Z,42.50
2018-11-23T02:52:54.687Z,35.43
2018-11-23T02:55:25.060Z,40.90
2018-11-23T02:57:55.573Z,41.43
2018-11-23T03:00:25.630Z,39.80
2018-11-23T03:02:56.438Z,38.23
2018-11-23T03:05:26.854Z,44.43
2018-11-23T03:07:57.416Z,34.53
2018-11-23T03:10:28.738Z,35.87
2018-11-23T03:12:58.268Z,40.63
2018-11-23T03:15:28.477Z,38.70
2018-11-23T03:17:58.982Z,31.57
2018-11-23T03:20:29.059Z,38.33
2018-11-23T03:22:59.431Z,34.37
2018-11-23T03:25:30.353Z,36.07
2018-11-23T03:28:00.071Z,37.50
2018-11-23T03:30:30.359Z,39.97
2018-11-23T03:33:00.767Z,39.47
2018-11-23T03:35:30.709Z,39.40
2018-11-23T03:38:00.698Z,38.10
2018-11-23T03:40:31.554Z,41.30
2018-11-23T03:43:01.958Z,38.67
2018-11-23T03:45:32.275Z,39.03
2018-11-23T03:48:02.603Z,43.13
2018-11-23T03:50:33.079Z,41.60
2018-11-23T03:53:03.003Z,42.70
2018-11-23T03:55:33.897Z,40.70
2018-11-23T03:58:03.754Z,47.57
2018-11-23T04:00:33.707Z,43.23
2018-11-23T04:03:04.489Z,45.53
2018-11-23T04:05:34.850Z,44.63
2018-11-23T04:08:05.267Z,47.93
2018-11-23T04:10:39.739Z,41.93
2018-11-23T04:13:13.704Z,47.47
2018-11-23T04:15:46.399Z,47.23
2018-11-23T04:18:18.055Z,48.90
2018-11-23T04:20:53.051Z,47.80
2018-11-23T04:23:24.917Z,50.73
2018-11-23T04:25:56.886Z,51.00
2018-11-23T04:28:30.220Z,48.13
2018-11-23T04:31:02.998Z,54.77
2018-11-23T04:33:32.874Z,51.13
2018-11-23T04:36:03.994Z,51.87
2018-11-23T04:38:35.898Z,57.40
2018-11-23T04:41:07.368Z,52.97
2018-11-23T04:43:37.122Z,48.60
2018-11-23T04:46:07.245Z,54.23
2018-11-23T04:48:37.981Z,52.50
2018-11-23T04:51:07.642Z,49.13
2018-11-23T04:53:37.397Z,49.47
2018-11-23T04:56:07.182Z,57.23
2018-11-23T04:58:39.322Z,55.77
2018-11-23T05:01:11.166Z,53.23
2018-11-23T05:03:43.030Z,50.80
2018-11-23T05:06:13.608Z,54.17
2018-11-23T05:08:43.867Z,56.37
2018-11-23T05:11:14.326Z,53.87
2018-11-23T05:13:44.145Z,55.00
2018-11-23T05:16:15.068Z,54.40
2018-11-23T05:18:47.034Z,51.37
2018-11-23T05:21:19.215Z,63.70
2018-11-23T05:23:50.091Z,64.80
2018-11-23T05:26:23.185Z,60.43
2018-11-23T05:28:53.279Z,61.83
2018-11-23T05:31:23.550Z,57.10
2018-11-23T05:33:55.135Z,59.40
2018-11-23T05:36:28.242Z,56.70
2018-11-23T05:38:59.288Z,57.30
2018-11-23T05:41:31.235Z,46.77
2018-11-23T05:44:01.199Z,52.83
2018-11-23T05:46:33.231Z,55.90
2018-11-23T05:49:05.715Z,56.87
2018-11-23T05:51:35.337Z,53.97
2018-11-23T05:54:06.481Z,53.20
2018-11-23T05:56:36.390Z,52.83
2018-11-23T05:59:06.660Z,54.27
2018-11-23T06:01:36.511Z,58.80
2018-11-23T06:04:07.342Z,54.10
2018-11-23T06:06:42.261Z,55.07
2018-11-23T06:09:08.338Z,48.37
2018-11-23T06:11:38.810Z,52.57
2018-11-23T06:14:09.156Z,52.10
2018-11-23T06:16:38.848Z,51.60
2018-11-23T06:19:09.094Z,61.37
2018-11-23T06:21:40.546Z,57.23
2018-11-23T06:24:19.590Z,54.60
2018-11-23T06:26:51.600Z,47.80
2018-11-23T06:29:23.515Z,54.70
2018-11-23T06:31:55.483Z,59.67
2018-11-23T06:34:25.746Z,53.07
2018-11-23T06:36:56.830Z,50.57
2018-11-23T06:39:26.857Z,56.30
2018-11-23T06:41:57.035Z,62.13
2018-11-23T06:44:30.301Z,62.37
2018-11-23T06:47:01.343Z,58.73
2018-11-23T06:49:34.834Z,61.37
2018-11-23T06:52:04.761Z,58.60
2018-11-23T06:54:35.031Z,53.10
2018-11-23T06:57:05.617Z,51.00
2018-11-23T06:59:36.546Z,55.57
2018-11-23T07:02:07.474Z,55.60
2018-11-23T07:04:38.885Z,66.87
2018-11-23T07:07:12.122Z,60.40
2018-11-23T07:09:54.515Z,60.10
2018-11-23T07:12:27.544Z,55.37
2018-11-23T07:15:00.790Z,63.60
2018-11-23T07:17:31.966Z,63.03
2018-11-23T07:20:02.630Z,65.90
2018-11-23T07:22:32.452Z,58.53
2018-11-23T07:25:02.807Z,62.47
2018-11-23T07:27:33.779Z,58.43
2018-11-23T07:30:04.951Z,58.00
2018-11-23T07:32:37.836Z,51.20
2018-11-23T07:35:12.102Z,59.03
2018-11-23T07:37:44.081Z,58.23
2018-11-23T07:40:29.140Z,63.60
2018-11-23T07:43:00.724Z,59.17
2018-11-23T07:45:37.627Z,61.17
2018-11-23T07:48:09.515Z,64.30
2018-11-23T07:50:41.862Z,71.33
2018-11-23T07:53:13.488Z,74.50
2018-11-23T07:55:46.920Z,67.17
2018-11-23T07:58:16.920Z,58.73
2018-11-23T08:00:49.942Z,68.10
2018-11-23T08:03:21.665Z,71.40
2018-11-23T08:05:54.631Z,69.90
2018-11-23T08:08:24.981Z,67.73
2018-11-23T08:10:54.018Z,76.00
2018-11-23T08:13:25.588Z,79.33
2018-11-23T08:15:57.018Z,69.03
2018-11-23T08:18:26.651Z,77.97
2018-11-23T08:20:57.033Z,68.20
2018-11-23T08:23:28.189Z,75.13
2018-11-23T08:26:01.244Z,67.70
2018-11-23T08:28:31.408Z,70.73
2018-11-23T08:31:00.991Z,74.50
2018-11-23T08:33:32.889Z,69.03
2018-11-23T08:36:06.127Z,72.03
2018-11-23T08:38:38.274Z,67.30
2018-11-23T08:41:07.919Z,71.17
2018-11-23T08:43:40.406Z,72.37
2018-11-23T08:46:11.926Z,64.70
2018-11-23T08:48:42.422Z,63.63
2018-11-23T08:51:14.747Z,74.93
2018-11-23T08:53:46.264Z,75.40
2018-11-23T08:56:18.057Z,80.20
2018-11-23T08:58:52.510Z,72.40
2018-11-23T09:01:24.127Z,61.37
2018-11-23T09:03:56.589Z,75.40
2018-11-23T09:06:28.002Z,74.57
2018-11-23T09:09:01.308Z,75.97
2018-11-23T09:11:33.541Z,68.20
2018-11-23T09:14:04.166Z,68.20
2018-11-23T09:16:34.500Z,69.10
2018-11-23T09:19:06.145Z,74.33
2018-11-23T09:21:38.256Z,65.23
2018-11-23T09:24:14.646Z,67.20
2018-11-23T09:26:44.392Z,67.43
2018-11-23T09:29:15.545Z,66.20
2018-11-23T09:31:45.662Z,70.50
2018-11-23T09:34:17.317Z,71.13
2018-11-23T09:36:49.383Z,71.63
2018-11-23T09:39:20.721Z,65.90
2018-11-23T09:41:52.574Z,66.20
2018-11-23T09:44:23.397Z,65.57
2018-11-23T09:46:53.325Z,64.67
2018-11-23T09:49:24.070Z,62.33
2018-11-23T09:51:54.744Z,69.47
2018-11-23T09:54:24.699Z,65.40
2018-11-23T09:56:54.737Z,70.00
2018-11-23T09:59:25.440Z,71.73
2018-11-23T10:01:55.333Z,61.83
2018-11-23T10:07:21.720Z,64.67
2018-11-23T10:10:05.986Z,72.47
2018-11-23T10:12:49.246Z,68.40
2018-11-23T10:15:23.815Z,64.93
2018-11-23T10:17:57.044Z,67.03
2018-11-23T10:20:30.402Z,68.87
2018-11-23T10:23:04.371Z,68.50
2018-11-23T10:25:37.538Z,67.97
2018-11-23T10:28:11.688Z,60.17
2018-11-23T10:30:45.590Z,67.27
2018-11-23T10:33:16.435Z,60.47
2018-11-23T10:35:46.946Z,58.23
2018-11-23T10:38:19.022Z,56.23
2018-11-23T10:40:51.070Z,70.40
2018-11-23T10:43:25.193Z,58.47
2018-11-23T10:45:59.985Z,60.37
2018-11-23T10:48:32.678Z,60.87
2018-11-23T10:51:04.950Z,66.37
2018-11-23T10:53:34.527Z,54.80
2018-11-23T10:56:04.948Z,54.60
2018-11-23T10:58:35.386Z,52.90
2018-11-23T11:01:10.966Z,58.50
2018-11-23T11:03:47.711Z,57.43
2018-11-23T11:06:26.111Z,61.40
2018-11-23T11:08:57.686Z,59.57
2018-11-23T11:11:28.073Z,53.50
2018-11-23T11:13:57.818Z,52.10
2018-11-23T11:16:28.953Z,59.67
2018-11-23T11:18:59.881Z,51.67
2018-11-23T11:21:32.470Z,56.13
2018-11-23T11:24:04.856Z,54.40
2018-11-23T11:26:36.809Z,51.63
2018-11-23T11:29:08.189Z,59.13
2018-11-23T11:31:39.848Z,51.37
2018-11-23T11:34:09.880Z,54.23
2018-11-23T11:36:41.509Z,49.30
2018-11-23T11:39:18.210Z,53.37
2018-11-23T11:41:46.906Z,56.10
2018-11-23T11:44:17.909Z,62.50
2018-11-23T11:46:50.194Z,50.23
2018-11-23T11:49:21.122Z,50.03
2018-11-23T11:51:51.078Z,53.47
2018-11-23T11:54:21.923Z,51.77
2018-11-23T11:56:53.914Z,55.07
2018-11-23T11:59:26.820Z,52.60
2018-11-23T12:01:58.958Z,49.63
2018-11-23T12:04:29.075Z,51.70
2018-11-23T12:06:59.703Z,47.63
2018-11-23T12:09:30.543Z,47.63
2018-11-23T12:12:01.077Z,44.10
2018-11-23T12:14:33.113Z,49.20
2018-11-23T12:17:06.855Z,44.17
2018-11-23T12:19:37.801Z,46.70
2018-11-23T12:22:08.501Z,41.43
2018-11-23T12:24:38.459Z,44.20
2018-11-23T12:27:08.076Z,46.60
2018-11-23T12:29:40.168Z,45.57
2018-11-23T12:32:12.743Z,37.83
2018-11-23T12:34:47.138Z,47.87
2018-11-23T12:37:17.793Z,37.97
2018-11-23T12:39:49.431Z,40.60
2018-11-23T12:42:19.682Z,38.90
2018-11-23T12:44:50.069Z,43.93
2018-11-23T12:47:20.156Z,35.70
2018-11-23T12:49:51.307Z,39.57
2018-11-23T12:52:21.682Z,41.13
2018-11-23T12:54:53.503Z,40.50
2018-11-23T12:57:29.327Z,43.40
2018-11-23T13:00:02.812Z,43.80
2018-11-23T13:02:35.208Z,37.63
2018-11-23T13:05:08.750Z,39.93
2018-11-23T13:07:40.166Z,44.67
2018-11-23T13:10:12.546Z,39.37
2018-11-23T13:12:42.640Z,39.40
2018-11-23T13:15:14.125Z,39.97
2018-11-23T13:17:46.895Z,38.30
2018-11-23T13:20:17.074Z,37.07
2018-11-23T13:22:47.570Z,40.03
2018-11-23T13:25:20.992Z,36.37
2018-11-23T13:27:54.505Z,40.07
2018-11-23T13:30:29.599Z,36.70
2018-11-23T13:33:00.588Z,38.03
2018-11-23T13:35:31.556Z,37.83
2018-11-23T13:38:02.297Z,33.90
2018-11-23T13:40:35.249Z,36.77
2018-11-23T13:43:07.383Z,38.03
2018-11-23T13:45:39.282Z,32.70
2018-11-23T13:48:11.547Z,41.03
2018-11-23T13:50:43.147Z,41.93
2018-11-23T13:53:15.149Z,39.67
2018-11-23T13:55:45.563Z,35.00
2018-11-23T13:58:17.050Z,31.33
2018-11-23T14:00:51.446Z,32.57
2018-11-23T14:03:25.406Z,28.07
2018-11-23T14:05:57.212Z,27.37
2018-11-23T14:08:32.313Z,28.07
2018-11-23T14:11:04.153Z,29.50
2018-11-23T14:13:45.013Z,32.00
2018-11-23T14:16:16.363Z,28.40
2018-11-23T14:18:50.351Z,34.27
2018-11-23T14:21:21.699Z,33.70
2018-11-23T14:23:54.836Z,30.67
2018-11-23T14:26:25.926Z,39.10
2018-11-23T14:28:56.040Z,33.73
2018-11-23T14:31:25.831Z,31.00
2018-11-23T14:34:00.958Z,32.20
2018-11-23T14:36:34.282Z,33.73
2018-11-23T14:39:10.478Z,32.20
2018-11-23T14:41:44.282Z,34.27
2018-11-23T14:44:15.927Z,30.37
2018-11-23T14:46:47.958Z,31.93
2018-11-23T14:49:19.279Z,35.50
2018-11-23T14:51:51.580Z,32.83
2018-11-23T14:54:25.352Z,30.63
2018-11-23T14:56:58.975Z,36.43
2018-11-23T14:59:31.233Z,33.17
2018-11-23T15:02:06.926Z,38.37
2018-11-23T15:04:38.350Z,33.50
2018-11-23T15:07:08.292Z,36.27
2018-11-23T15:09:42.206Z,42.50
2018-11-23T15:12:12.186Z,38.90
2018-11-23T15:14:42.356Z,38.10
2018-11-23T15:17:12.592Z,32.53
2018-11-23T15:19:45.990Z,35.77
2018-11-23T15:22:16.358Z,31.43
2018-11-23T15:24:47.983Z,33.93
2018-11-23T15:27:20.391Z,30.30
2018-11-23T15:29:52.765Z,34.00
2018-11-23T15:32:27.218Z,35.57
2018-11-23T15:34:58.113Z,31.80
2018-11-23T15:37:28.084Z,34.47
2018-11-23T15:40:01.702Z,36.80
2018-11-23T15:42:31.823Z,36.23
2018-11-23T15:45:02.343Z,31.77
2018-11-23T15:47:34.424Z,34.63
2018-11-23T15:50:13.064Z,34.47
2018-11-23T15:52:45.679Z,36.30
2018-11-23T15:55:24.845Z,36.53
2018-11-23T15:57:57.170Z,40.43
2018-11-23T16:00:29.774Z,39.23
2018-11-23T16:03:01.277Z,32.97
2018-11-23T16:05:32.881Z,35.57
2018-11-23T16:08:05.258Z,41.30
2018-11-23T16:10:37.544Z,33.07
2018-11-23T16:13:11.338Z,39.47
2018-11-23T16:15:42.459Z,34.97
2018-11-23T16:18:14.656Z,42.50
2018-11-23T16:20:49.767Z,37.50
2018-11-23T16:23:22.154Z,35.50
2018-11-23T16:25:54.535Z,37.07
2018-11-23T16:28:26.484Z,46.07
2018-11-23T16:31:05.340Z,39.53
2018-11-23T16:33:36.985Z,42.60
2018-11-23T16:36:10.903Z,41.10
2018-11-23T16:38:43.327Z,41.13
2018-11-23T16:41:13.613Z,34.33
2018-11-23T16:43:47.339Z,42.40
2018-11-23T16:46:20.073Z,40.60
2018-11-23T16:48:53.252Z,44.47
2018-11-23T16:51:33.195Z,43.60
2018-11-23T16:54:11.161Z,39.80
2018-11-23T16:56:46.694Z,44.07
2018-11-23T16:59:21.365Z,43.30
2018-11-23T17:01:59.926Z,44.90
2018-11-23T17:04:35.607Z,41.87
2018-11-23T17:07:13.041Z,41.90
2018-11-23T17:09:45.917Z,45.03
2018-11-23T17:12:21.503Z,44.40
2018-11-23T17:14:53.468Z,40.00
2018-11-23T17:17:30.251Z,40.70
2018-11-23T17:20:00.664Z,44.20
2018-11-23T17:22:41.218Z,39.20
2018-11-23T17:25:19.841Z,36.60
2018-11-23T17:27:58.590Z,42.80
2018-11-23T17:30:32.394Z,41.47
2018-11-23T17:33:04.044Z,41.43
2018-11-23T17:35:34.476Z,37.63
2018-11-23T17:38:09.295Z,41.33
2018-11-23T17:40:42.443Z,42.20
2018-11-23T17:43:21.302Z,40.33
2018-11-23T17:45:57.884Z,37.27
2018-11-23T17:48:32.480Z,41.20
2018-11-23T17:51:05.420Z,40.77
2018-11-23T17:53:38.047Z,41.33
2018-11-23T17:56:09.622Z,39.47
2018-11-23T17:58:47.399Z,45.83
2018-11-23T18:01:18.035Z,40.33
2018-11-23T18:03:50.724Z,36.60
2018-11-23T18:06:23.921Z,39.43
2018-11-23T18:08:54.919Z,42.20
2018-11-23T18:11:30.298Z,42.53
2018-11-23T18:14:05.739Z,39.20
2018-11-23T18:16:36.720Z,37.53
2018-11-23T18:19:07.421Z,44.27
2018-11-23T18:21:38.944Z,44.53
2018-11-23T18:24:08.816Z,42.80
2018-11-23T18:26:39.819Z,40.53
2018-11-23T18:29:11.453Z,37.87
2018-11-23T18:31:43.520Z,40.93
2018-11-23T18:34:17.982Z,37.83
2018-11-23T18:36:50.787Z,41.00
2018-11-23T18:39:21.782Z,43.30
2018-11-23T18:41:55.697Z,42.57
2018-11-23T18:44:27.151Z,47.37
2018-11-23T18:46:59.658Z,44.57
2018-11-23T18:49:29.781Z,51.63
2018-11-23T18:52:02.972Z,44.80
2018-11-23T18:54:33.127Z,49.33
2018-11-23T18:57:06.450Z,48.97
2018-11-23T18:59:38.862Z,46.53
2018-11-23T19:02:11.210Z,45.10
2018-11-23T19:04:44.254Z,52.77
2018-11-23T19:07:16.384Z,49.63
2018-11-23T19:09:48.888Z,58.57
2018-11-23T19:12:28.130Z,44.83
2018-11-23T19:15:00.126Z,43.00
2018-11-23T19:17:33.278Z,43.30
2018-11-23T19:20:05.894Z,50.40
2018-11-23T19:22:37.244Z,44.13
2018-11-23T19:25:09.354Z,49.40
2018-11-23T19:27:45.789Z,42.83
2018-11-23T19:30:28.580Z,42.90
2018-11-23T19:32:58.488Z,44.97
2018-11-23T19:35:32.456Z,40.47
2018-11-23T19:38:06.061Z,38.33
2018-11-23T19:40:38.467Z,39.37
2018-11-23T19:43:10.624Z,50.50
2018-11-23T19:45:46.084Z,47.13
2018-11-23T19:48:18.255Z,47.90
2018-11-23T19:50:52.484Z,45.57
2018-11-23T19:53:25.196Z,46.90
2018-11-23T19:56:00.242Z,46.83
2018-11-23T19:58:31.490Z,40.37
2018-11-23T20:01:01.958Z,41.63
2018-11-23T20:03:34.927Z,38.77
2018-11-23T20:06:06.832Z,38.60
2018-11-23T20:08:39.582Z,41.77
2018-11-23T20:11:10.791Z,44.83
2018-11-23T20:13:44.765Z,46.73
2018-11-23T20:16:23.518Z,36.40
2018-11-23T20:18:59.079Z,42.03
2018-11-23T20:21:29.232Z,40.60
2018-11-23T20:23:59.622Z,41.07
2018-11-23T20:26:30.794Z,41.40
2018-11-23T20:29:04.870Z,36.97
2018-11-23T20:31:40.756Z,34.70
2018-11-23T20:34:26.063Z,32.40
2018-11-23T20:37:14.254Z,32.27
2018-11-23T20:39:48.622Z,35.73
2018-11-23T20:42:20.396Z,33.20
2018-11-23T20:44:53.467Z,35.00
2018-11-23T20:47:26.533Z,31.63
2018-11-23T20:49:58.375Z,30.53
2018-11-23T20:52:32.344Z,38.03
2018-11-23T20:55:04.235Z,30.97
2018-11-23T20:57:38.148Z,32.07
2018-11-23T21:00:18.398Z,34.83
2018-11-23T21:02:50.728Z,29.67
2018-11-23T21:05:27.959Z,29.50
2018-11-23T21:07:58.978Z,31.00
2018-11-23T21:10:31.614Z,33.20
2018-11-23T21:13:04.100Z,32.20
2018-11-23T21:15:39.621Z,29.00
2018-11-23T21:18:10.542Z,38.73
2018-11-23T21:20:47.548Z,32.60
2018-11-23T21:23:21.686Z,32.87
2018-11-23T21:25:53.295Z,33.93
2018-11-23T21:28:30.594Z,31.80
2018-11-23T21:31:04.443Z,32.97
2018-11-23T21:33:41.473Z,34.83
2018-11-23T21:36:16.595Z,36.67
2018-11-23T21:38:55.994Z,37.90
2018-11-23T21:41:35.375Z,36.43
2018-11-23T21:44:09.836Z,36.30
2018-11-23T21:46:41.719Z,37.00
2018-11-23T21:49:17.564Z,37.67
2018-11-23T21:51:57.252Z,36.53
2018-11-23T21:54:35.250Z,36.60
2018-11-23T21:57:08.919Z,37.63
2018-11-23T21:59:44.420Z,33.60
2018-11-23T22:02:17.351Z,36.97
2018-11-23T22:04:51.120Z,34.27
2018-11-23T22:07:23.752Z,35.47
2018-11-23T22:09:55.538Z,32.57
2018-11-23T22:12:25.913Z,35.07
2018-11-23T22:14:57.536Z,34.10
2018-11-23T22:17:27.753Z,30.70
2018-11-23T22:20:00.444Z,34.00
2018-11-23T22:22:33.064Z,31.63
2018-11-23T22:25:08.162Z,29.80
2018-11-23T22:27:41.195Z,28.27
2018-11-23T22:30:15.560Z,30.50
2018-11-23T22:32:45.217Z,33.97
2018-11-23T22:35:15.705Z,34.60
2018-11-23T22:37:48.313Z,28.40
2018-11-23T22:40:19.518Z,33.90
2018-11-23T22:42:53.530Z,28.97
2018-11-23T22:45:25.342Z,28.20
2018-11-23T22:47:56.325Z,28.33
2018-11-23T22:50:30.931Z,30.57
2018-11-23T22:53:05.173Z,32.73
2018-11-23T22:55:37.117Z,29.07
2018-11-23T22:58:09.819Z,33.80
2018-11-23T23:00:47.607Z,33.83
2018-11-23T23:03:26.354Z,30.70
2018-11-23T23:06:01.572Z,28.87
2018-11-23T23:08:34.818Z,27.17
2018-11-23T23:11:08.060Z,30.20
2018-11-23T23:13:38.975Z,28.33
2018-11-23T23:16:13.025Z,32.03
2018-11-23T23:18:45.324Z,26.33
2018-11-23T23:21:16.807Z,28.43
2018-11-23T23:23:55.690Z,31.03
2018-11-23T23:26:27.994Z,35.47
2018-11-23T23:28:59.283Z,30.70
2018-11-23T23:31:34.047Z,31.63
2018-11-23T23:34:06.191Z,30.80
2018-11-23T23:36:38.239Z,26.47
2018-11-23T23:39:11.441Z,40.50
2018-11-23T23:41:41.935Z,29.40
2018-11-23T23:44:12.158Z,30.07
2018-11-23T23:46:44.360Z,31.17
2018-11-23T23:49:18.501Z,31.97
2018-11-23T23:51:50.673Z,32.77
2018-11-23T23:54:23.976Z,40.47
2018-11-23T23:56:56.717Z,34.63
2018-11-23T23:59:26.478Z,34.17
